Time;durP1;ratioP1;P1;durP2;ratioP2;P2;SDS_P1;SDS_P2;PMS_P1;PMS_P2;Temp;Humidity;BMP_temperature;BMP_pressure;BME280_temperature;BME280_humidity;BME280_pressure;Samples;Min_cycle;Max_cycle;Signal;HPM_P1;HPM_P2
2022/10/20 00:01:47;;;;;;;16.17;7.73;;;;;;;9.55;98.04;101827.66;5064533;28;20104;-74
2022/10/20 00:04:13;;;;;;;16.80;8.00;;;;;;;9.55;97.99;101820.28;5069134;28;20106;-74
2022/10/20 00:06:38;;;;;;;14.77;8.60;;;;;;;9.47;98.21;101809.34;5043183;28;20390;-73
2022/10/20 00:09:04;;;;;;;13.27;7.75;;;;;;;9.52;97.93;101797.91;5071699;28;20031;-73
2022/10/20 00:11:30;;;;;;;15.77;8.18;;;;;;;9.41;98.79;101800.94;5055479;28;20020;-73
2022/10/20 00:13:57;;;;;;;16.70;8.48;;;;;;;9.46;99.01;101801.31;5070765;28;20032;-74
2022/10/20 00:16:23;;;;;;;12.35;8.57;;;;;;;9.41;98.84;101799.06;5068261;28;20036;-73
2022/10/20 00:18:49;;;;;;;18.15;8.43;;;;;;;9.45;98.86;101799.59;5055500;28;20055;-73
2022/10/20 00:21:17;;;;;;;17.02;9.43;;;;;;;9.40;99.02;101791.03;5052893;28;20028;-73
2022/10/20 00:23:43;;;;;;;20.50;8.98;;;;;;;9.41;99.19;101792.75;5048424;28;20048;-74
2022/10/20 00:26:28;;;;;;;18.73;9.32;;;;;;;9.40;98.87;101791.03;5070035;28;20082;-74
2022/10/20 00:28:54;;;;;;;19.80;8.75;;;;;;;9.46;98.89;101780.25;5063608;28;20024;-74
2022/10/20 00:31:21;;;;;;;16.83;8.68;;;;;;;9.51;98.91;101787.97;5070576;28;20047;-73
2022/10/20 00:33:46;;;;;;;14.85;8.60;;;;;;;9.49;98.85;101785.41;5070785;28;20475;-73
2022/10/20 00:36:14;;;;;;;13.10;8.75;;;;;;;9.50;98.92;101787.13;5065480;28;20035;-73
2022/10/20 00:38:41;;;;;;;17.10;8.43;;;;;;;9.54;99.03;101780.28;5068631;28;20028;-73
2022/10/20 00:41:06;;;;;;;19.20;10.00;;;;;;;9.48;99.08;101778.22;5070928;28;20032;-73
2022/10/20 00:43:51;;;;;;;15.75;9.02;;;;;;;9.48;99.50;101777.38;5069305;28;20464;-73
2022/10/20 00:46:23;;;;;;;19.63;9.65;;;;;;;9.44;99.60;101770.53;5069418;28;20029;-73
2022/10/20 00:48:55;;;;;;;19.83;9.07;;;;;;;9.52;99.54;101778.75;5051075;28;20036;-73
2022/10/20 00:51:26;;;;;;;16.00;9.45;;;;;;;9.48;99.69;101766.44;5070721;28;20025;-73
2022/10/20 00:53:57;;;;;;;15.23;9.32;;;;;;;9.54;99.53;101757.53;5068729;28;20094;-73
2022/10/20 00:56:23;;;;;;;18.48;9.68;;;;;;;9.51;99.63;101758.72;5050680;28;20545;-73
2022/10/20 00:58:49;;;;;;;21.10;9.45;;;;;;;9.55;99.65;101764.75;5066137;28;20047;-74
2022/10/20 01:01:14;;;;;;;19.83;9.40;;;;;;;9.47;99.38;101746.44;5045005;28;20060;-74
2022/10/20 01:03:46;;;;;;;20.70;10.30;;;;;;;9.38;99.91;101738.38;5071176;28;20387;-73
2022/10/20 01:06:14;;;;;;;14.07;9.23;;;;;;;9.42;99.89;101732.41;5071102;28;20495;-73
2022/10/20 01:08:39;;;;;;;22.30;10.80;;;;;;;9.37;100.00;101729.34;5068345;28;20032;-73
2022/10/20 01:11:20;;;;;;;16.08;9.95;;;;;;;9.44;100.00;101732.25;5053582;28;20028;-73
2022/10/20 01:13:55;;;;;;;12.82;9.35;;;;;;;9.48;100.00;101733.59;5064380;28;20028;-73
2022/10/20 01:16:38;;;;;;;15.43;10.32;;;;;;;9.41;100.00;101722.50;5069118;28;20021;-73
2022/10/20 01:19:32;;;;;;;20.13;11.50;;;;;;;9.48;100.00;101714.47;5039093;28;20047;-73
2022/10/20 01:22:16;;;;;;;19.20;10.38;;;;;;;9.41;100.00;101707.97;5070966;28;20032;-73
2022/10/20 01:24:50;;;;;;;16.63;10.48;;;;;;;9.40;100.00;101715.31;5064338;28;20506;-73
2022/10/20 01:27:26;;;;;;;18.60;10.48;;;;;;;9.37;100.00;101714.78;5051011;28;20094;-73
2022/10/20 01:30:15;;;;;;;15.82;10.43;;;;;;;9.35;100.00;101711.38;5046554;28;20028;-73
2022/10/20 01:32:49;;;;;;;17.92;10.45;;;;;;;9.31;100.00;101710.88;5068236;28;20033;-73
2022/10/20 01:35:30;;;;;;;16.27;10.95;;;;;;;9.36;100.00;101713.09;5069686;28;20032;-74
2022/10/20 01:38:13;;;;;;;19.02;11.30;;;;;;;9.35;100.00;101694.97;5071116;28;20013;-73
2022/10/20 01:41:00;;;;;;;16.02;10.35;;;;;;;9.31;100.00;101689.00;5053800;28;20059;-73
2022/10/20 01:43:29;;;;;;;20.75;11.02;;;;;;;9.35;100.00;101678.56;5049317;28;20040;-73
2022/10/20 01:45:57;;;;;;;19.05;11.65;;;;;;;9.39;100.00;101671.75;5069258;28;20039;-73
2022/10/20 01:48:26;;;;;;;21.85;10.95;;;;;;;9.35;100.00;101671.22;5050988;28;20494;-73
2022/10/20 01:50:52;;;;;;;20.05;10.25;;;;;;;9.31;100.00;101672.59;5068407;28;20513;-73
2022/10/20 01:53:18;;;;;;;15.13;9.88;;;;;;;9.30;100.00;101670.03;5050585;28;20123;-74
2022/10/20 01:55:44;;;;;;;;;;;;;;;9.26;100.00;101666.78;5068922;28;20097;-73
2022/10/20 01:58:27;;;;;;;19.02;9.95;;;;;;;9.25;100.00;101661.47;5069029;28;19912;-73
2022/10/20 02:01:01;;;;;;;14.50;10.43;;;;;;;9.24;100.00;101665.25;5054456;28;20024;-73
2022/10/20 02:03:57;;;;;;;18.17;10.70;;;;;;;9.23;100.00;101669.84;5068885;28;20056;-73
2022/10/20 02:06:28;;;;;;;17.67;10.50;;;;;;;9.23;100.00;101658.06;5071218;28;20387;-73
2022/10/20 02:09:07;;;;;;;21.27;10.45;;;;;;;9.27;100.00;101662.16;5070675;28;20459;-73
2022/10/20 02:11:55;;;;;;;19.75;11.30;;;;;;;9.30;100.00;101646.25;5068245;28;20368;-73
2022/10/20 02:14:22;;;;;;;20.92;10.75;;;;;;;9.32;100.00;101636.03;5068040;28;20427;-73
2022/10/20 02:16:51;;;;;;;21.67;11.20;;;;;;;9.33;100.00;101634.13;5066904;28;20183;-73
2022/10/20 02:19:22;;;;;;;22.83;12.13;;;;;;;9.29;100.00;101627.31;5068387;28;20032;-73
2022/10/20 02:21:50;;;;;;;23.58;12.48;;;;;;;9.29;100.00;101610.91;5060039;28;20033;-73
2022/10/20 02:24:17;;;;;;;23.67;12.10;;;;;;;9.27;100.00;101599.28;5064111;28;20021;-73
2022/10/20 02:26:43;;;;;;;21.83;12.45;;;;;;;9.29;100.00;101591.78;5051719;28;20028;-73
2022/10/20 02:29:14;;;;;;;23.80;11.32;;;;;;;9.32;100.00;101596.88;5041539;28;20074;-73
2022/10/20 02:31:41;;;;;;;21.85;11.00;;;;;;;9.29;100.00;101591.78;5068592;28;20424;-73
2022/10/20 02:34:07;;;;;;;17.63;13.00;;;;;;;9.26;100.00;101589.38;5049238;28;20517;-73
2022/10/20 02:36:37;;;;;;;21.10;12.87;;;;;;;9.33;100.00;101582.19;5071020;28;20037;-73
2022/10/20 02:39:02;;;;;;;21.63;11.40;;;;;;;9.31;100.00;101573.31;5069668;28;20285;-73
2022/10/20 02:41:29;;;;;;;19.38;12.50;;;;;;;9.35;100.00;101570.06;5067286;28;20025;-72
2022/10/20 02:43:55;;;;;;;19.77;12.23;;;;;;;9.34;100.00;101556.59;5062404;28;20494;-72
2022/10/20 02:46:21;;;;;;;20.65;13.57;;;;;;;9.39;100.00;101559.66;5067513;28;20025;-73
2022/10/20 02:48:47;;;;;;;29.75;12.85;;;;;;;9.37;100.00;101561.69;5069108;28;20060;-73
2022/10/20 02:51:12;;;;;;;17.98;12.63;;;;;;;9.42;100.00;101545.63;5064831;28;20056;-73
2022/10/20 02:53:38;;;;;;;21.52;12.65;;;;;;;9.42;100.00;101548.34;5068056;28;20103;-73
2022/10/20 02:56:03;;;;;;;21.00;12.48;;;;;;;9.39;100.00;101535.03;5052090;28;20079;-73
2022/10/20 02:58:28;;;;;;;26.13;13.03;;;;;;;9.43;100.00;101533.66;5050577;28;20489;-73
2022/10/20 03:00:54;;;;;;;23.70;14.07;;;;;;;9.40;100.00;101540.31;5067514;28;20037;-73
2022/10/20 03:03:19;;;;;;;19.70;13.17;;;;;;;9.41;100.00;101535.72;5068192;28;20028;-73
2022/10/20 03:05:46;;;;;;;29.20;14.53;;;;;;;9.41;100.00;101524.78;5050617;28;20036;-73
2022/10/20 03:08:12;;;;;;;26.33;13.82;;;;;;;9.49;100.00;101519.28;5068049;28;20028;-73
2022/10/20 03:10:37;;;;;;;23.40;13.00;;;;;;;9.49;100.00;101519.28;5049041;28;20033;-73
2022/10/20 03:13:06;;;;;;;24.88;14.07;;;;;;;9.56;100.00;101514.84;5046632;28;20355;-73
2022/10/20 03:15:32;;;;;;;26.80;14.18;;;;;;;9.55;100.00;101516.72;5067444;28;20111;-73
2022/10/20 03:17:57;;;;;;;21.38;14.00;;;;;;;9.57;100.00;101513.81;5051953;28;20123;-73
2022/10/20 03:20:22;;;;;;;30.00;14.40;;;;;;;9.56;100.00;101514.84;5070653;28;20044;-73
2022/10/20 03:22:48;;;;;;;19.07;13.23;;;;;;;9.55;100.00;101519.44;5065396;28;20035;-73
2022/10/20 03:25:13;;;;;;;22.13;14.07;;;;;;;9.54;100.00;101514.13;5049896;28;20021;-72
2022/10/20 03:27:38;;;;;;;26.30;14.63;;;;;;;9.58;100.00;101510.03;5052557;28;20542;-73
2022/10/20 03:30:04;;;;;;;23.30;14.35;;;;;;;9.64;100.00;101507.47;5048249;28;20125;-73
2022/10/20 03:32:30;;;;;;;22.30;13.77;;;;;;;9.69;100.00;101506.94;5066730;28;20150;-73
2022/10/20 03:34:55;;;;;;;26.95;13.85;;;;;;;9.68;100.00;101494.28;5048471;28;20060;-73
2022/10/20 03:37:20;;;;;;;29.08;15.32;;;;;;;9.71;100.00;101485.75;5069269;28;20021;-73
2022/10/20 03:39:45;;;;;;;22.63;13.75;;;;;;;9.71;100.00;101472.06;5067496;28;20036;-73
2022/10/20 03:42:11;;;;;;;34.15;14.27;;;;;;;9.70;100.00;101470.34;5067696;28;20094;-73
2022/10/20 03:44:37;;;;;;;27.58;14.38;;;;;;;9.74;100.00;101482.63;5051267;28;20031;-73
2022/10/20 03:47:02;;;;;;;21.42;14.10;;;;;;;9.75;100.00;101487.06;5066783;28;20086;-73
2022/10/20 03:49:27;;;;;;;25.17;15.35;;;;;;;9.76;100.00;101491.53;5067495;28;20036;-73
2022/10/20 03:51:53;;;;;;;20.95;14.63;;;;;;;9.82;100.00;101499.03;5069329;28;20115;-73
2022/10/20 03:54:18;;;;;;;24.42;14.55;;;;;;;9.76;100.00;101497.84;5049866;28;20032;-73
2022/10/20 03:56:43;;;;;;;28.88;15.23;;;;;;;9.78;100.00;101503.16;5066286;28;20029;-73
2022/10/20 03:59:10;;;;;;;24.52;15.10;;;;;;;9.78;100.00;101484.00;5038197;28;20024;-73
2022/10/20 04:01:35;;;;;;;;;;;;;;;9.75;100.00;101481.59;5064752;28;20040;-73
2022/10/20 04:04:01;;;;;;;22.90;14.80;;;;;;;9.80;100.00;101476.44;5054126;28;20032;-73
2022/10/20 04:06:26;;;;;;;24.40;14.63;;;;;;;9.77;100.00;101483.13;5064315;28;20025;-73
2022/10/20 04:08:52;;;;;;;27.38;14.15;;;;;;;9.81;100.00;101472.69;5036895;28;20183;-73
2022/10/20 04:11:17;;;;;;;27.50;16.13;;;;;;;9.86;100.00;101486.69;5066694;28;20033;-73
2022/10/20 04:13:43;;;;;;;23.30;14.50;;;;;;;9.87;100.00;101474.75;5067701;28;20028;-73
2022/10/20 04:16:08;;;;;;;26.77;15.32;;;;;;;9.92;100.00;101481.38;5068123;28;20039;-75
2022/10/20 04:18:33;;;;;;;26.70;15.57;;;;;;;9.93;100.00;101466.66;5069037;28;20075;-75
2022/10/20 04:20:59;;;;;;;25.38;15.23;;;;;;;9.89;100.00;101470.78;5067226;28;20111;-73
2022/10/20 04:23:24;;;;;;;23.05;15.23;;;;;;;9.86;100.00;101459.31;5067800;28;20028;-75
2022/10/20 04:25:50;;;;;;;26.20;16.23;;;;;;;9.90;100.00;101455.22;5067231;28;20024;-74
2022/10/20 04:28:17;;;;;;;25.73;16.03;;;;;;;9.93;100.00;101457.59;5068229;28;20502;-74
2022/10/20 04:30:43;;;;;;;22.73;15.00;;;;;;;9.91;100.00;101465.13;5061362;28;20732;-73
2022/10/20 04:33:09;;;;;;;27.17;16.27;;;;;;;9.97;100.00;101464.41;5060867;28;20060;-75
2022/10/20 04:35:34;;;;;;;23.87;14.40;;;;;;;9.93;100.00;101461.19;5062576;28;20029;-76
2022/10/20 04:38:00;;;;;;;25.97;16.67;;;;;;;9.92;100.00;101459.47;5058735;28;20025;-74
2022/10/20 04:40:25;;;;;;;24.17;14.97;;;;;;;9.96;100.00;101449.88;5065441;28;20043;-75
2022/10/20 04:42:51;;;;;;;33.95;14.80;;;;;;;9.93;100.00;101463.91;5069350;28;20119;-75
2022/10/20 04:45:16;;;;;;;25.58;14.82;;;;;;;9.98;100.00;101464.22;5067096;28;20040;-75
2022/10/20 04:47:42;;;;;;;28.80;15.35;;;;;;;9.96;100.00;101471.78;5068776;28;20471;-75
2022/10/20 04:50:07;;;;;;;23.67;15.85;;;;;;;9.95;100.00;101450.06;5067693;28;20032;-74
2022/10/20 04:52:33;;;;;;;28.77;14.73;;;;;;;9.97;100.00;101447.97;5070444;28;20031;-74
2022/10/20 04:54:58;;;;;;;39.97;17.47;;;;;;;9.98;100.00;101441.50;5069409;28;20116;-74
2022/10/20 04:57:23;;;;;;;35.30;17.58;;;;;;;9.96;100.00;101414.31;5049197;28;20021;-75
2022/10/20 04:59:49;;;;;;;30.45;16.10;;;;;;;9.99;100.00;101413.94;5068378;28;20036;-75
2022/10/20 05:02:14;;;;;;;27.97;16.90;;;;;;;9.93;100.00;101409.19;5064874;28;20028;-74
2022/10/20 05:04:39;;;;;;;27.80;16.65;;;;;;;9.96;100.00;101410.72;5070345;28;20031;-73
2022/10/20 05:07:05;;;;;;;29.00;16.50;;;;;;;9.97;100.00;101418.75;5068458;28;20119;-72
2022/10/20 05:09:31;;;;;;;32.67;16.93;;;;;;;9.97;100.00;101431.56;5068675;28;20074;-74
2022/10/20 05:11:57;;;;;;;30.92;16.52;;;;;;;10.04;100.00;101433.44;5045705;28;20040;-73
2022/10/20 05:14:22;;;;;;;35.15;16.33;;;;;;;9.98;100.00;101404.03;5061032;28;20035;-74
2022/10/20 05:16:48;;;;;;;29.63;15.43;;;;;;;9.94;100.00;101388.16;5067026;28;20029;-75
2022/10/20 05:19:13;;;;;;;29.90;16.90;;;;;;;9.95;100.00;101395.31;5069697;28;20161;-75
2022/10/20 05:21:38;;;;;;;27.40;15.73;;;;;;;9.92;100.00;101390.22;5053913;28;20387;-75
2022/10/20 05:24:04;;;;;;;24.42;15.70;;;;;;;9.91;100.00;101380.28;5072062;28;20020;-74
2022/10/20 05:26:33;;;;;;;33.77;16.90;;;;;;;10.00;100.00;101379.22;5072447;28;20032;-74
2022/10/20 05:29:00;;;;;;;25.15;15.57;;;;;;;9.93;100.00;101368.13;5048446;28;20047;-75
2022/10/20 05:31:25;;;;;;;33.83;15.75;;;;;;;9.94;100.00;101374.47;5052428;28;20372;-75
2022/10/20 05:33:54;;;;;;;29.50;15.87;;;;;;;9.94;100.00;101372.56;5071513;28;20035;-74
2022/10/20 05:36:21;;;;;;;27.00;17.08;;;;;;;9.96;100.00;101384.22;5071305;28;20024;-75
2022/10/20 05:38:47;;;;;;;31.80;15.82;;;;;;;9.90;100.00;101375.84;5069843;28;20036;-75
2022/10/20 05:41:18;;;;;;;29.77;17.00;;;;;;;9.93;100.00;101373.59;5066540;28;20428;-75
2022/10/20 05:43:51;;;;;;;32.67;16.13;;;;;;;9.94;100.00;101382.69;5071182;28;20426;-74
2022/10/20 05:46:18;;;;;;;24.88;16.15;;;;;;;9.99;100.00;101372.06;5070360;28;20044;-75
2022/10/20 05:48:44;;;;;;;;;;;;;;;9.97;100.00;101379.56;5053409;28;20025;-74
2022/10/20 05:51:19;;;;;;;29.63;15.70;;;;;;;10.04;100.00;101386.09;5069839;28;19916;-74
2022/10/20 05:53:45;;;;;;;28.38;16.58;;;;;;;9.97;100.00;101388.66;5068674;28;20035;-75
2022/10/20 05:56:13;;;;;;;32.90;17.33;;;;;;;9.97;100.00;101382.31;5071518;28;20040;-74
2022/10/20 05:58:39;;;;;;;33.17;17.20;;;;;;;9.91;100.00;101374.81;5052461;28;20463;-75
2022/10/20 06:01:15;;;;;;;29.30;16.73;;;;;;;9.90;100.00;101381.34;5050194;28;20120;-74
2022/10/20 06:03:41;;;;;;;27.02;16.00;;;;;;;9.94;100.00;101374.47;5067768;28;20774;-75
2022/10/20 06:06:06;;;;;;;25.20;16.47;;;;;;;9.88;100.00;101359.63;5069362;28;20274;-74
2022/10/20 06:08:32;;;;;;;29.37;17.37;;;;;;;9.83;100.00;101350.25;5070384;28;20035;-74
2022/10/20 06:11:03;;;;;;;25.30;16.87;;;;;;;9.88;100.00;101337.72;5070111;28;20029;-73
2022/10/20 06:13:30;;;;;;;33.38;17.10;;;;;;;9.95;100.00;101341.47;5067538;28;20600;-74
2022/10/20 06:15:59;;;;;;;;;;;;;;;9.98;100.00;101340.25;5065593;28;20375;-73
2022/10/20 06:18:25;;;;;;;33.55;16.50;;;;;;;9.99;100.00;101355.63;5052325;28;19916;-73
2022/10/20 06:20:58;;;;;;;29.43;16.23;;;;;;;10.01;100.00;101351.69;5068696;28;20032;-75
2022/10/20 06:23:23;;;;;;;29.05;16.95;;;;;;;9.97;100.00;101350.34;5070006;28;20100;-74
2022/10/20 06:25:48;;;;;;;30.67;17.70;;;;;;;10.00;100.00;101365.53;5050654;28;20028;-74
2022/10/20 06:28:14;;;;;;;31.63;18.20;;;;;;;10.08;100.00;101363.63;5068860;28;20510;-75
2022/10/20 06:30:39;;;;;;;42.22;17.33;;;;;;;10.12;100.00;101367.72;5047445;28;20035;-74
2022/10/20 06:33:05;;;;;;;27.52;16.45;;;;;;;10.04;100.00;101365.00;5070832;28;20036;-74
2022/10/20 06:35:30;;;;;;;29.93;17.40;;;;;;;10.04;100.00;101367.75;5068636;28;20162;-74
2022/10/20 06:37:55;;;;;;;32.40;17.73;;;;;;;10.10;100.00;101374.41;5068749;28;20025;-75
2022/10/20 06:40:21;;;;;;;30.45;16.45;;;;;;;10.05;100.00;101358.53;5068003;28;20032;-74
2022/10/20 06:42:46;;;;;;;25.00;16.57;;;;;;;10.07;100.00;101352.84;5070101;28;20483;-75
2022/10/20 06:45:12;;;;;;;26.90;16.70;;;;;;;10.08;100.00;101349.09;5065718;28;20028;-75
2022/10/20 06:47:37;;;;;;;31.83;17.25;;;;;;;10.12;100.00;101347.69;5050014;28;20086;-76
2022/10/20 06:50:02;;;;;;;29.63;17.02;;;;;;;10.23;100.00;101347.25;5066206;28;21736;-75
2022/10/20 06:52:27;;;;;;;28.10;16.30;;;;;;;10.22;100.00;101340.97;5051928;28;20484;-75
2022/10/20 06:54:53;;;;;;;28.47;17.10;;;;;;;10.25;100.00;101340.56;5051512;28;20046;-75
2022/10/20 06:57:18;;;;;;;25.97;16.73;;;;;;;10.24;100.00;101341.63;5068665;28;20070;-75
2022/10/20 06:59:43;;;;;;;25.80;16.67;;;;;;;10.29;100.00;101341.91;5067537;28;20025;-75
2022/10/20 07:02:10;;;;;;;27.83;16.40;;;;;;;10.31;100.00;101339.84;5068000;28;20040;-75
2022/10/20 07:04:36;;;;;;;;;;;;;;;10.39;100.00;101341.66;5070492;28;20561;-76
2022/10/20 07:07:01;;;;;;;29.23;17.20;;;;;;;10.44;100.00;101339.22;5046821;28;19959;-74
2022/10/20 07:09:26;;;;;;;28.42;16.75;;;;;;;10.40;100.00;101335.16;5051313;28;20285;-76
2022/10/20 07:11:52;;;;;;;26.70;16.93;;;;;;;10.40;100.00;101338.75;5049713;28;21742;-74
2022/10/20 07:14:17;;;;;;;26.53;16.10;;;;;;;10.46;100.00;101331.69;5069244;28;20028;-73
2022/10/20 07:16:42;;;;;;;31.48;16.30;;;;;;;10.48;100.00;101341.44;5064933;28;20503;-73
2022/10/20 07:19:08;;;;;;;39.25;17.73;;;;;;;10.55;100.00;101356.06;5068078;28;20032;-73
2022/10/20 07:21:35;;;;;;;27.50;16.20;;;;;;;10.58;100.00;101352.13;5068220;28;20391;-73
2022/10/20 07:24:01;;;;;;;32.80;16.92;;;;;;;10.69;100.00;101347.06;5051249;28;20042;-73
2022/10/20 07:26:32;;;;;;;29.00;16.40;;;;;;;10.67;100.00;101329.09;5045056;28;20025;-73
2022/10/20 07:28:59;;;;;;;30.15;17.33;;;;;;;10.68;100.00;101336.28;5039530;28;20167;-73
2022/10/20 07:31:37;;;;;;;32.03;17.58;;;;;;;10.71;100.00;101335.88;5047394;28;20028;-74
2022/10/20 07:34:03;;;;;;;;;;;;;;;10.77;100.00;101329.66;5069427;28;20032;-73
2022/10/20 07:36:30;;;;;;;25.02;16.13;;;;;;;10.83;100.00;101334.41;5068719;28;20465;-73
2022/10/20 07:38:57;;;;;;;27.98;16.38;;;;;;;10.82;100.00;101336.28;5067668;28;20032;-73
2022/10/20 07:41:24;;;;;;;28.30;16.48;;;;;;;10.93;100.00;101329.47;5065186;28;20028;-74
2022/10/20 07:43:50;;;;;;;26.60;16.88;;;;;;;10.92;100.00;101339.63;5067083;28;20031;-73
2022/10/20 07:46:16;;;;;;;24.30;17.05;;;;;;;10.97;100.00;101347.25;5066020;28;20040;-73
2022/10/20 07:48:41;;;;;;;29.10;16.57;;;;;;;11.05;100.00;101349.94;5070418;28;20086;-73
2022/10/20 07:51:12;;;;;;;29.70;17.03;;;;;;;11.05;100.00;101355.41;5066822;28;20487;-73
2022/10/20 07:53:37;;;;;;;30.52;16.65;;;;;;;11.04;100.00;101340.00;5067262;28;20043;-73
2022/10/20 07:56:03;;;;;;;27.63;15.80;;;;;;;11.09;100.00;101338.38;5067471;28;20032;-73
2022/10/20 07:58:28;;;;;;;27.17;16.70;;;;;;;11.14;100.00;101337.81;5069025;28;20078;-74
2022/10/20 08:00:53;;;;;;;31.93;16.50;;;;;;;11.18;100.00;101341.88;5065973;28;20033;-74
2022/10/20 08:03:18;;;;;;;24.63;16.40;;;;;;;11.22;100.00;101338.56;5049485;28;20028;-73
2022/10/20 08:05:44;;;;;;;31.43;17.50;;;;;;;11.26;100.00;101341.81;5067584;28;20025;-73
2022/10/20 08:08:09;;;;;;;27.93;15.50;;;;;;;11.36;100.00;101345.13;5069521;28;20382;-73
2022/10/20 08:10:34;;;;;;;31.83;17.13;;;;;;;11.41;100.00;101331.66;5065413;28;20029;-73
2022/10/20 08:13:00;;;;;;;28.17;15.60;;;;;;;11.47;100.00;101336.41;5050160;28;20037;-73
2022/10/20 08:15:25;;;;;;;28.77;15.63;;;;;;;11.46;100.00;101323.69;5064869;28;20035;-74
2022/10/20 08:17:50;;;;;;;21.77;15.43;;;;;;;11.46;100.00;101323.69;5068432;28;20028;-73
2022/10/20 08:20:16;;;;;;;25.83;16.63;;;;;;;11.49;100.00;101323.34;5065958;28;20534;-73
2022/10/20 08:22:41;;;;;;;29.07;15.33;;;;;;;11.52;100.00;101321.06;5050099;28;20051;-73
2022/10/20 08:25:08;;;;;;;24.23;15.23;;;;;;;11.65;100.00;101314.91;5047563;28;20479;-73
2022/10/20 08:27:33;;;;;;;24.45;15.23;;;;;;;11.75;100.00;101330.00;5068940;28;20024;-73
2022/10/20 08:29:58;;;;;;;34.43;15.33;;;;;;;11.80;100.00;101318.47;5069731;28;20055;-73
2022/10/20 08:32:24;;;;;;;28.00;16.23;;;;;;;11.87;100.00;101313.91;5052642;28;20032;-73
2022/10/20 08:34:49;;;;;;;32.70;16.57;;;;;;;12.00;100.00;101314.06;5053040;28;20029;-73
2022/10/20 08:37:14;;;;;;;23.00;14.97;;;;;;;12.04;100.00;101318.09;5053425;28;20395;-74
2022/10/20 08:39:40;;;;;;;27.73;15.13;;;;;;;12.12;100.00;101304.25;5071259;28;20032;-73
2022/10/20 08:42:05;;;;;;;25.43;15.10;;;;;;;12.23;100.00;101311.97;5067324;28;20069;-74
2022/10/20 08:44:34;;;;;;;25.33;15.20;;;;;;;12.35;100.00;101307.63;5068128;28;20032;-73
2022/10/20 08:47:02;;;;;;;26.65;14.77;;;;;;;12.46;99.57;101296.97;5049088;28;20020;-73
2022/10/20 08:49:31;;;;;;;23.80;16.73;;;;;;;12.49;99.78;101295.72;5052959;28;20029;-73
2022/10/20 08:51:57;;;;;;;26.25;14.73;;;;;;;12.56;99.25;101302.13;5069019;28;20096;-73
2022/10/20 08:54:23;;;;;;;29.05;14.68;;;;;;;12.73;98.98;101300.78;5069404;28;20053;-73
2022/10/20 08:56:49;;;;;;;29.33;15.57;;;;;;;12.90;97.66;101289.25;5056270;28;20032;-73
2022/10/20 08:59:20;;;;;;;23.10;15.40;;;;;;;13.05;97.50;101289.19;5061026;28;20288;-73
2022/10/20 09:01:46;;;;;;;23.20;14.73;;;;;;;13.14;96.98;101283.28;5065898;28;20025;-73
2022/10/20 09:04:19;;;;;;;27.27;14.90;;;;;;;13.25;96.49;101293.75;5069427;28;20153;-73
2022/10/20 09:06:47;;;;;;;19.27;14.05;;;;;;;13.33;96.59;101274.31;5066279;28;20033;-73
2022/10/20 09:09:16;;;;;;;19.27;13.13;;;;;;;13.34;96.32;101280.69;5063725;28;20145;-73
2022/10/20 09:11:43;;;;;;;22.58;13.93;;;;;;;13.37;95.45;101264.59;5064197;28;20039;-73
2022/10/20 09:14:10;;;;;;;35.97;14.52;;;;;;;13.48;95.20;101253.00;5049109;28;20020;-73
2022/10/20 09:16:38;;;;;;;22.77;13.60;;;;;;;13.45;96.13;101253.41;5061832;28;20028;-73
2022/10/20 09:19:10;;;;;;;20.70;13.60;;;;;;;13.62;95.77;101270.41;5067418;28;20028;-73
2022/10/20 09:21:38;;;;;;;29.48;14.05;;;;;;;13.66;95.20;101283.53;5061340;28;20078;-73
2022/10/20 09:24:05;;;;;;;22.15;13.43;;;;;;;13.83;94.23;101273.84;5068579;28;20115;-73
2022/10/20 09:26:35;;;;;;;27.92;14.10;;;;;;;13.82;94.99;101293.34;5066179;28;20348;-74
2022/10/20 09:29:15;;;;;;;20.77;13.55;;;;;;;13.95;94.19;101283.22;5067271;28;20061;-73
2022/10/20 09:31:52;;;;;;;24.02;13.30;;;;;;;13.94;94.10;101278.75;5045164;28;20112;-73
2022/10/20 09:34:20;;;;;;;;;;;;;;;14.04;94.12;101281.13;5058353;28;20407;-73
2022/10/20 09:36:47;;;;;;;23.42;13.10;;;;;;;14.02;94.04;101274.94;5066538;28;19920;-73
2022/10/20 09:39:26;;;;;;;25.80;12.82;;;;;;;14.05;94.47;101266.28;5068770;28;20498;-74
2022/10/20 09:42:00;;;;;;;33.90;14.32;;;;;;;14.01;94.55;101278.75;5065281;28;20028;-74
2022/10/20 09:44:26;;;;;;;20.65;13.13;;;;;;;13.98;94.36;101280.03;5064993;28;20028;-73
2022/10/20 09:46:53;;;;;;;20.57;12.37;;;;;;;13.99;94.26;101280.91;5047260;28;20020;-74
2022/10/20 09:49:27;;;;;;;17.38;12.25;;;;;;;13.98;94.69;101281.97;5067338;28;20016;-73
2022/10/20 09:51:53;;;;;;;26.35;12.23;;;;;;;14.00;94.58;101285.34;5063877;28;20024;-73
2022/10/20 09:54:21;;;;;;;20.50;13.80;;;;;;;13.94;95.36;101272.41;5067775;28;20047;-73
2022/10/20 09:56:48;;;;;;;20.88;13.40;;;;;;;13.91;95.42;101267.31;5064391;28;20990;-73
2022/10/20 09:59:30;;;;;;;22.15;13.40;;;;;;;13.85;96.16;101248.84;5063149;28;20158;-73
2022/10/20 10:02:22;;;;;;;21.92;13.80;;;;;;;13.81;96.88;101226.41;5063655;28;20478;-73
2022/10/20 10:04:50;;;;;;;23.65;12.98;;;;;;;13.88;97.43;101234.69;5058854;28;20041;-74
2022/10/20 10:07:24;;;;;;;26.67;13.60;;;;;;;13.84;98.43;101244.41;5067683;28;20032;-73
2022/10/20 10:10:20;;;;;;;20.77;13.63;;;;;;;13.80;99.11;101249.50;5064857;28;20040;-73
2022/10/20 10:12:59;;;;;;;21.15;13.38;;;;;;;13.86;99.67;101239.53;5064376;28;20392;-74
2022/10/20 10:15:35;;;;;;;20.70;13.25;;;;;;;13.92;99.27;101224.97;5062041;28;20197;-75
2022/10/20 10:18:12;;;;;;;25.25;14.60;;;;;;;13.93;99.49;101224.72;5063166;28;20021;-75
2022/10/20 10:20:38;;;;;;;24.25;13.88;;;;;;;13.87;100.00;101214.53;5065797;28;20032;-74
2022/10/20 10:23:22;;;;;;;21.80;14.87;;;;;;;13.93;100.00;101212.88;5046121;28;20035;-74
2022/10/20 10:25:48;;;;;;;24.15;13.48;;;;;;;13.93;100.00;101207.38;5065665;28;20479;-74
2022/10/20 10:28:34;;;;;;;25.42;14.63;;;;;;;13.99;100.00;101195.50;5067223;28;20024;-74
2022/10/20 10:31:15;;;;;;;30.25;14.98;;;;;;;14.04;100.00;101180.03;5061443;28;20032;-74
2022/10/20 10:33:41;;;;;;;24.10;13.65;;;;;;;14.07;100.00;101176.00;5047395;28;20510;-74
2022/10/20 10:36:15;;;;;;;22.57;14.50;;;;;;;13.96;100.00;101176.63;5065797;28;20020;-73
2022/10/20 10:38:40;;;;;;;22.90;15.00;;;;;;;13.94;100.00;101181.50;5067739;28;20055;-73
2022/10/20 10:41:22;;;;;;;22.57;14.03;;;;;;;13.89;100.00;101167.53;5042041;28;20368;-73
2022/10/20 10:43:53;;;;;;;24.58;14.23;;;;;;;13.87;100.00;101187.00;5064430;28;20025;-74
2022/10/20 10:46:26;;;;;;;20.73;14.18;;;;;;;13.93;100.00;101179.81;5060339;28;20130;-73
2022/10/20 10:49:29;;;;;;;25.10;14.55;;;;;;;13.93;100.00;101179.81;5048158;28;20043;-73
2022/10/20 10:52:03;;;;;;;24.50;14.20;;;;;;;13.94;100.00;101167.75;5063397;28;20060;-72
2022/10/20 10:54:56;;;;;;;24.83;13.95;;;;;;;13.88;100.00;101149.31;5061986;28;20085;-73
2022/10/20 10:57:53;;;;;;;25.33;12.82;;;;;;;13.93;100.00;101155.03;5063410;28;20024;-73
2022/10/20 11:00:35;;;;;;;29.40;13.93;;;;;;;13.98;100.00;101160.75;5061461;28;20025;-73
2022/10/20 11:03:16;;;;;;;22.90;13.30;;;;;;;14.06;100.00;101164.16;5060904;28;20020;-72
2022/10/20 11:06:20;;;;;;;26.00;13.75;;;;;;;14.08;100.00;101162.00;5059500;28;20029;-72
2022/10/20 11:08:51;;;;;;;20.27;13.77;;;;;;;14.20;100.00;101154.00;5002642;28;20090;-72
2022/10/20 11:11:39;;;;;;;19.33;12.90;;;;;;;14.20;100.00;101159.50;5046849;28;20445;-72
2022/10/20 11:14:26;;;;;;;20.98;15.02;;;;;;;14.25;100.00;101155.03;5066956;28;20039;-73
2022/10/20 11:16:57;;;;;;;29.15;14.10;;;;;;;14.29;100.00;101158.22;5061499;28;20408;-72
2022/10/20 11:19:53;;;;;;;28.33;15.15;;;;;;;14.30;100.00;101143.41;5060718;28;20127;-73